createdAt,value
2022-12-03T00:01:56.154Z,101886.38
2022-12-03T00:04:22.348Z,101889.91
2022-12-03T00:06:48.475Z,101886.31
2022-12-03T00:09:14.641Z,101883.56
2022-12-03T00:11:40.766Z,101879.31
2022-12-03T00:14:06.873Z,101879.34
2022-12-03T00:16:33.018Z,101882.03
2022-12-03T00:18:59.146Z,101878.50
2022-12-03T00:21:25.318Z,101872.53
2022-12-03T00:23:51.756Z,101870.91
2022-12-03T00:26:17.860Z,101879.78
2022-12-03T00:28:43.981Z,101870.03
2022-12-03T01:03:08.895Z,101865.91
2022-12-03T01:05:35.119Z,101870.19
2022-12-03T01:08:01.254Z,101858.75
2022-12-03T01:10:27.373Z,101864.88
2022-12-03T01:12:53.524Z,101863.16
2022-12-03T01:15:19.757Z,101861.44
2022-12-03T01:17:45.883Z,101863.16
2022-12-03T01:20:14.493Z,101862.31
2022-12-03T01:22:40.616Z,101863.19
2022-12-03T01:25:06.962Z,101871.66
2022-12-03T01:27:33.138Z,101861.38
2022-12-03T01:29:59.245Z,101865.91
2022-12-03T01:32:25.370Z,101870.31
2022-12-03T01:34:55.854Z,101865.91
2022-12-03T01:37:24.370Z,101858.88
2022-12-03T01:39:51.217Z,101866.75
2022-12-03T01:42:22.924Z,101864.13
2022-12-03T01:44:52.794Z,101860.38
2022-12-03T01:47:22.596Z,101872.59
2022-12-03T01:49:53.152Z,101861.25
2022-12-03T01:52:23.069Z,101860.31
2022-12-03T01:54:53.936Z,101854.22
2022-12-03T01:57:24.874Z,101854.38
2022-12-03T01:59:52.042Z,101848.22
2022-12-03T02:02:28.158Z,101849.03
2022-12-03T02:04:55.149Z,101850.84
2022-12-03T02:07:29.368Z,101849.19
2022-12-03T02:09:58.148Z,101849.09
2022-12-03T02:12:30.370Z,101849.09
2022-12-03T02:14:56.808Z,101846.44
2022-12-03T02:17:23.142Z,101851.00
2022-12-03T02:19:49.809Z,101848.06
2022-12-03T02:22:33.756Z,101843.59
2022-12-03T02:25:09.030Z,101847.41
2022-12-03T02:27:35.197Z,101845.47
2022-12-03T02:30:01.301Z,101850.00
2022-12-03T02:32:27.427Z,101843.84
2022-12-03T02:34:53.989Z,101856.94
2022-12-03T02:37:24.793Z,101854.47
2022-12-03T02:39:54.197Z,101847.41
2022-12-03T02:42:36.232Z,101844.81
2022-12-03T02:45:10.389Z,101851.03
2022-12-03T02:47:47.376Z,101850.16
2022-12-03T02:50:17.568Z,101845.59
2022-12-03T02:52:46.444Z,101840.31
2022-12-03T02:55:15.458Z,101851.63
2022-12-03T02:57:42.259Z,101846.41
2022-12-03T03:00:09.696Z,101845.75
2022-12-03T03:02:37.399Z,101844.75
2022-12-03T03:05:06.208Z,101845.59
2022-12-03T03:07:32.956Z,101843.00
2022-12-03T03:09:59.893Z,101843.00
2022-12-03T03:12:26.034Z,101849.31
2022-12-03T03:14:52.668Z,101849.31
2022-12-03T03:17:19.118Z,101843.84
2022-12-03T03:19:45.292Z,101841.13
2022-12-03T03:22:12.226Z,101841.13
2022-12-03T03:24:38.829Z,101837.47
2022-12-03T03:27:05.347Z,101831.31
2022-12-03T03:29:32.990Z,101829.38
2022-12-03T03:31:59.797Z,101830.22
2022-12-03T03:34:26.219Z,101829.44
2022-12-03T03:36:52.612Z,101824.31
2022-12-03T03:39:18.773Z,101834.31
2022-12-03T03:41:46.918Z,101841.16
2022-12-03T03:44:13.994Z,101833.19
2022-12-03T03:46:41.235Z,101828.06
2022-12-03T03:49:07.504Z,101823.63
2022-12-03T03:51:35.828Z,101824.34
2022-12-03T03:54:03.924Z,101821.72
2022-12-03T03:56:30.546Z,101817.28
2022-12-03T03:58:56.761Z,101812.75
2022-12-03T04:01:23.907Z,101807.81
2022-12-03T04:03:50.364Z,101810.41
2022-12-03T04:06:16.520Z,101814.06
2022-12-03T04:08:43.561Z,101810.44
2022-12-03T04:11:28.551Z,101810.47
2022-12-03T04:13:54.662Z,101811.28
2022-12-03T04:16:20.850Z,101803.38
2022-12-03T04:18:47.101Z,101805.22
2022-12-03T04:21:37.882Z,101798.28
2022-12-03T04:24:05.902Z,101801.47
2022-12-03T04:26:50.396Z,101790.84
2022-12-03T04:29:17.242Z,101804.09
2022-12-03T04:32:02.594Z,101799.78
2022-12-03T04:34:47.484Z,101794.69
2022-12-03T04:37:13.831Z,101796.47
2022-12-03T04:39:40.004Z,101796.53
2022-12-03T04:42:06.674Z,101792.06
2022-12-03T04:44:33.668Z,101791.16
2022-12-03T04:47:00.823Z,101792.88
2022-12-03T04:49:26.955Z,101796.22
2022-12-03T04:51:53.088Z,101791.31
2022-12-03T04:54:20.772Z,101796.34
2022-12-03T04:56:46.908Z,101786.84
2022-12-03T04:59:16.580Z,101787.81
2022-12-03T05:01:43.185Z,101794.69
2022-12-03T05:04:09.385Z,101782.41
2022-12-03T05:06:35.991Z,101784.50
2022-12-03T05:09:02.179Z,101785.25
2022-12-03T05:11:28.329Z,101773.88
2022-12-03T05:13:54.492Z,101780.78
2022-12-03T05:16:20.683Z,101780.09
2022-12-03T05:18:46.834Z,101787.22
2022-12-03T05:21:12.944Z,101781.78
2022-12-03T05:23:39.071Z,101780.91
2022-12-03T05:26:05.204Z,101767.84
2022-12-03T05:28:33.128Z,101774.91
2022-12-03T05:30:59.272Z,101774.00
2022-12-03T05:33:25.481Z,101771.47
2022-12-03T05:35:51.588Z,101777.94
2022-12-03T05:38:17.719Z,101781.47
2022-12-03T05:40:44.059Z,101780.72
2022-12-03T05:43:10.409Z,101777.19
2022-12-03T05:45:42.164Z,101774.63
2022-12-03T05:48:11.334Z,101772.56
2022-12-03T05:50:39.032Z,101773.00
2022-12-03T05:53:15.584Z,101765.06
2022-12-03T05:55:42.188Z,101767.81
2022-12-03T05:58:08.386Z,101769.63
2022-12-03T06:00:42.897Z,101765.06
2022-12-03T06:03:09.429Z,101773.00
2022-12-03T06:05:35.778Z,101769.78
2022-12-03T06:08:02.219Z,101769.78
2022-12-03T06:10:28.849Z,101771.31
2022-12-03T06:12:55.357Z,101778.16
2022-12-03T06:15:21.980Z,101778.19
2022-12-03T06:17:48.107Z,101771.22
2022-12-03T06:20:18.206Z,101770.31
2022-12-03T06:22:44.811Z,101775.63
2022-12-03T06:25:11.369Z,101777.66
2022-12-03T06:27:37.832Z,101775.47
2022-12-03T06:30:08.557Z,101781.56
2022-12-03T06:32:34.774Z,101784.50
2022-12-03T06:35:00.891Z,101773.88
2022-12-03T06:37:27.022Z,101778.34
2022-12-03T06:39:53.137Z,101775.66
2022-12-03T06:42:19.656Z,101789.63
2022-12-03T06:44:45.801Z,101785.34
2022-12-03T06:47:11.936Z,101780.09
2022-12-03T06:49:38.074Z,101781.75
2022-12-03T06:52:05.179Z,101774.66
2022-12-03T06:54:31.355Z,101771.81
2022-12-03T06:56:57.473Z,101774.50
2022-12-03T06:59:23.595Z,101770.00
2022-12-03T07:01:49.781Z,101773.56
2022-12-03T07:04:15.932Z,101770.19
2022-12-03T07:06:42.076Z,101768.22
2022-12-03T07:09:08.194Z,101773.66
2022-12-03T07:11:40.521Z,101779.13
2022-12-03T07:14:08.424Z,101775.44
2022-12-03T07:16:38.190Z,101784.16
2022-12-03T07:19:05.701Z,101779.72
2022-12-03T07:21:32.400Z,101785.09
2022-12-03T07:23:58.522Z,101779.91
2022-12-03T07:26:24.680Z,101781.53
2022-12-03T07:28:50.822Z,101780.44
2022-12-03T07:31:16.996Z,101779.47
2022-12-03T07:33:43.229Z,101774.06
2022-12-03T07:36:10.468Z,101774.94
2022-12-03T07:38:36.905Z,101777.91
2022-12-03T07:41:03.022Z,101775.75
2022-12-03T07:43:29.153Z,101779.09
2022-12-03T07:45:55.367Z,101777.28
2022-12-03T07:48:21.501Z,101769.50
2022-12-03T07:50:47.630Z,101770.44
2022-12-03T07:53:14.842Z,101771.94
2022-12-03T07:55:40.985Z,101769.28
2022-12-03T07:58:07.296Z,101775.38
2022-12-03T08:00:33.515Z,101774.56
2022-12-03T08:02:59.714Z,101772.56
2022-12-03T08:05:26.853Z,101768.50
2022-12-03T08:07:53.039Z,101764.88
2022-12-03T08:10:19.408Z,101763.84
2022-12-03T08:12:45.560Z,101764.41
2022-12-03T08:15:13.642Z,101766.41
2022-12-03T08:17:40.712Z,101757.56
2022-12-03T08:20:24.130Z,101753.81
2022-12-03T08:22:52.665Z,101747.72
2022-12-03T08:25:27.795Z,101756.63
2022-12-03T08:28:16.198Z,101749.69
2022-12-03T08:30:44.092Z,101744.94
2022-12-03T08:33:35.303Z,101742.88
2022-12-03T08:36:12.604Z,101744.53
2022-12-03T08:38:40.563Z,101745.63
2022-12-03T08:41:15.021Z,101746.03
2022-12-03T08:43:43.840Z,101742.16
2022-12-03T08:46:18.908Z,101747.81
2022-12-03T08:48:49.072Z,101752.44
2022-12-03T08:51:25.457Z,101746.22
2022-12-03T08:54:01.588Z,101747.25
2022-12-03T08:56:30.252Z,101746.38
2022-12-03T08:59:26.106Z,101747.13
2022-12-03T09:01:53.831Z,101745.25
2022-12-03T09:04:47.499Z,101749.06
2022-12-03T09:07:13.646Z,101751.41
2022-12-03T09:09:40.288Z,101746.75
2022-12-03T09:12:06.609Z,101741.59
2022-12-03T09:14:32.755Z,101741.59
2022-12-03T09:17:01.389Z,101738.69
2022-12-03T09:19:31.028Z,101740.78
2022-12-03T09:21:57.261Z,101731.34
2022-12-03T09:24:23.523Z,101725.97
2022-12-03T09:26:50.190Z,101729.59
2022-12-03T09:29:16.317Z,101728.72
2022-12-03T09:31:42.542Z,101734.16
2022-12-03T09:34:10.080Z,101733.91
2022-12-03T09:36:36.212Z,101732.22
2022-12-03T09:39:02.342Z,101726.16
2022-12-03T09:41:28.748Z,101731.34
2022-12-03T09:44:17.180Z,101721.84
2022-12-03T09:46:42.326Z,101724.16
2022-12-03T09:49:16.069Z,101722.81
2022-12-03T09:51:43.394Z,101720.81
2022-12-03T09:54:25.644Z,101724.53
2022-12-03T09:56:53.416Z,101716.09
2022-12-03T09:59:20.697Z,101718.91
2022-12-03T10:01:47.110Z,101716.75
2022-12-03T10:04:13.451Z,101717.56
2022-12-03T10:06:45.494Z,101702.75
2022-12-03T10:09:14.736Z,101698.72
2022-12-03T10:11:40.884Z,101700.88
2022-12-03T10:14:06.991Z,101693.81
2022-12-03T10:16:34.247Z,101701.13
2022-12-03T10:19:01.130Z,101698.22
2022-12-03T10:21:35.014Z,101692.25
2022-12-03T10:24:30.088Z,101702.00
2022-12-03T10:27:19.082Z,101696.09
2022-12-03T10:29:55.748Z,101693.84
2022-12-03T10:32:43.227Z,101691.56
2022-12-03T10:35:15.415Z,101682.81
2022-12-03T10:37:58.820Z,101687.84
2022-12-03T10:40:30.784Z,101680.22
2022-12-03T10:43:24.477Z,101676.09
2022-12-03T10:46:01.981Z,101682.25
2022-12-03T10:48:29.921Z,101675.22
2022-12-03T10:51:04.164Z,101668.84
2022-12-03T10:53:33.038Z,101677.53
2022-12-03T10:56:02.017Z,101672.66
2022-12-03T10:58:37.237Z,101666.19
2022-12-03T11:01:14.931Z,101667.03
2022-12-03T11:03:41.152Z,101664.53
2022-12-03T11:06:14.221Z,101658.56
2022-12-03T11:08:43.569Z,101663.13
2022-12-03T11:11:26.104Z,101657.97
2022-12-03T11:14:03.683Z,101659.81
2022-12-03T11:16:41.830Z,101659.19
2022-12-03T11:19:18.835Z,101655.63
2022-12-03T11:22:03.461Z,101655.00
2022-12-03T11:24:29.914Z,101642.94
2022-12-03T11:26:55.994Z,101651.09
2022-12-03T11:29:51.427Z,101637.66
2022-12-03T11:32:55.121Z,101642.88
2022-12-03T11:35:24.176Z,101645.72
2022-12-03T11:37:50.413Z,101635.88
2022-12-03T11:40:16.493Z,101637.38
2022-12-03T11:42:43.332Z,101628.66
2022-12-03T11:45:09.383Z,101632.22
2022-12-03T11:47:43.870Z,101625.16
2022-12-03T11:50:22.126Z,101622.59
2022-12-03T11:52:53.509Z,101628.47
2022-12-03T11:55:30.147Z,101629.28
2022-12-03T11:58:05.909Z,101621.91
2022-12-03T12:00:32.319Z,101621.16
2022-12-03T12:02:59.257Z,101618.97
2022-12-03T12:05:27.286Z,101620.88
2022-12-03T12:07:53.929Z,101628.88
2022-12-03T12:10:39.258Z,101624.66
2022-12-03T12:13:05.410Z,101621.72
2022-12-03T12:15:41.720Z,101622.47
2022-12-03T12:18:41.022Z,101618.09
2022-12-03T12:21:41.002Z,101622.97
2022-12-03T12:24:32.834Z,101623.72
2022-12-03T12:27:26.677Z,101623.78
2022-12-03T12:29:55.765Z,101622.47
2022-12-03T12:32:28.115Z,101626.31
2022-12-03T12:34:59.320Z,101624.16
2022-12-03T12:37:47.304Z,101619.69
2022-12-03T12:40:16.529Z,101613.34
2022-12-03T12:42:52.497Z,101611.66
2022-12-03T12:45:22.924Z,101612.41
2022-12-03T12:48:10.292Z,101604.53
2022-12-03T12:50:41.461Z,101613.16
2022-12-03T12:53:10.675Z,101615.97
2022-12-03T12:55:38.252Z,101614.44
2022-12-03T12:58:12.062Z,101610.13
2022-12-03T13:00:38.217Z,101607.44
2022-12-03T13:03:05.799Z,101598.22
2022-12-03T13:05:44.685Z,101592.41
2022-12-03T13:08:22.260Z,101593.25
2022-12-03T13:10:49.118Z,101591.13
2022-12-03T13:13:17.508Z,101583.13
2022-12-03T13:16:03.896Z,101586.00
2022-12-03T13:18:34.511Z,101587.09
2022-12-03T13:21:13.311Z,101583.28
2022-12-03T13:23:40.512Z,101577.97
2022-12-03T13:26:32.781Z,101585.06
2022-12-03T13:29:11.603Z,101587.19
2022-12-03T13:31:43.544Z,101577.41
2022-12-03T13:34:16.578Z,101580.31
2022-12-03T13:36:44.336Z,101580.38
2022-12-03T13:39:21.402Z,101582.16
2022-12-03T13:42:08.192Z,101578.28
2022-12-03T13:44:36.527Z,101575.84
2022-12-03T13:47:13.620Z,101580.81
2022-12-03T13:49:39.759Z,101567.59
2022-12-03T13:52:12.883Z,101573.06
2022-12-03T13:54:39.833Z,101573.00
2022-12-03T13:57:06.613Z,101564.31
2022-12-03T13:59:32.861Z,101569.25
2022-12-03T14:01:59.021Z,101570.06
2022-12-03T14:04:25.178Z,101571.31
2022-12-03T14:06:51.324Z,101561.00
2022-12-03T14:09:17.476Z,101568.63
2022-12-03T14:12:02.070Z,101564.97
2022-12-03T14:14:28.192Z,101564.25
2022-12-03T14:16:59.648Z,101560.63
2022-12-03T14:19:26.285Z,101563.53
2022-12-03T14:21:52.637Z,101561.84
2022-12-03T14:24:18.756Z,101565.19
2022-12-03T14:26:45.181Z,101560.06
2022-12-03T14:29:11.309Z,101566.22
2022-12-03T14:31:37.477Z,101565.19
2022-12-03T14:34:03.630Z,101561.38
2022-12-03T14:36:29.785Z,101565.59
2022-12-03T14:38:55.921Z,101564.84
2022-12-03T14:41:40.516Z,101563.16
2022-12-03T14:44:06.697Z,101570.00
2022-12-03T14:46:32.810Z,101569.25
2022-12-03T14:48:59.073Z,101561.09
2022-12-03T14:51:25.264Z,101569.06
2022-12-03T14:53:51.390Z,101568.69
2022-12-03T14:56:18.146Z,101569.59
2022-12-03T14:58:44.295Z,101571.59
2022-12-03T15:01:10.557Z,101573.53
2022-12-03T15:03:36.736Z,101575.38
2022-12-03T15:06:02.877Z,101570.28
2022-12-03T15:08:29.040Z,101572.94
2022-12-03T15:10:55.315Z,101576.63
2022-12-03T15:13:21.521Z,101579.22
2022-12-03T15:15:47.730Z,101583.53
2022-12-03T15:18:13.866Z,101570.44
2022-12-03T15:20:40.006Z,101567.94
2022-12-03T15:23:08.832Z,101571.53
2022-12-03T15:25:38.952Z,101582.22
2022-12-03T15:28:05.589Z,101569.78
2022-12-03T15:30:32.260Z,101572.13
2022-12-03T15:32:58.387Z,101570.34
2022-12-03T15:35:24.511Z,101573.16
2022-12-03T15:37:50.667Z,101566.06
2022-12-03T15:40:16.794Z,101571.44
2022-12-03T15:42:42.928Z,101569.50
2022-12-03T15:45:13.621Z,101563.34
2022-12-03T15:47:41.412Z,101569.50
2022-12-03T15:50:08.166Z,101574.53
2022-12-03T15:52:34.457Z,101571.31
2022-12-03T15:55:00.794Z,101573.88
2022-12-03T15:57:26.917Z,101569.41
2022-12-03T15:59:55.299Z,101575.59
2022-12-03T16:02:21.692Z,101574.16
2022-12-03T16:04:47.878Z,101580.34
2022-12-03T16:07:14.033Z,101576.69
2022-12-03T16:09:40.196Z,101577.66
2022-12-03T16:12:06.432Z,101573.34
2022-12-03T16:14:32.673Z,101569.22
2022-12-03T16:17:00.129Z,101574.28
2022-12-03T16:19:26.374Z,101571.19
2022-12-03T16:21:52.524Z,101568.34
2022-12-03T16:24:18.653Z,101572.13
2022-12-03T16:26:44.761Z,101570.34
2022-12-03T16:29:12.182Z,101563.78
2022-12-03T16:31:38.385Z,101563.50
2022-12-03T16:34:04.650Z,101561.75
2022-12-03T16:36:30.786Z,101566.16
2022-12-03T16:38:58.109Z,101565.19
2022-12-03T16:41:24.229Z,101569.38
2022-12-03T16:43:50.452Z,101569.50
2022-12-03T16:46:26.262Z,101566.72
2022-12-03T16:48:55.578Z,101571.09
2022-12-03T16:51:26.441Z,101562.16
2022-12-03T16:53:52.605Z,101565.78
2022-12-03T16:56:18.748Z,101563.81
2022-12-03T16:58:44.976Z,101559.66
2022-12-03T17:01:11.532Z,101559.78
2022-12-03T17:03:37.707Z,101556.34
2022-12-03T17:06:05.089Z,101557.16
2022-12-03T17:08:31.470Z,101565.13
2022-12-03T17:10:57.813Z,101556.16
2022-12-03T17:13:24.086Z,101558.75
2022-12-03T17:15:51.017Z,101559.66
2022-12-03T17:18:17.350Z,101557.25
2022-12-03T17:20:43.499Z,101559.94
2022-12-03T17:23:09.648Z,101560.06
2022-12-03T17:25:35.854Z,101556.63
2022-12-03T17:28:02.159Z,101557.53
2022-12-03T17:30:28.284Z,101554.00
2022-12-03T17:32:54.436Z,101554.75
2022-12-03T17:35:20.582Z,101548.47
2022-12-03T17:37:46.726Z,101539.84
2022-12-03T17:40:14.459Z,101547.38
2022-12-03T17:42:40.625Z,101546.63
2022-12-03T17:45:07.493Z,101542.28
2022-12-03T17:47:33.614Z,101536.78
2022-12-03T17:49:59.815Z,101548.56
2022-12-03T17:52:25.932Z,101545.25
2022-12-03T17:57:38.169Z,101544.53
2022-12-03T18:00:05.458Z,101545.13
2022-12-03T18:02:38.156Z,101543.22
2022-12-03T18:05:04.420Z,101546.72
2022-12-03T18:07:30.583Z,101545.69
2022-12-03T18:09:57.178Z,101553.34
2022-12-03T18:12:23.590Z,101554.34
2022-12-03T18:14:49.741Z,101555.31
2022-12-03T18:17:15.849Z,101548.50
2022-12-03T18:19:41.977Z,101552.28
2022-12-03T18:22:08.162Z,101548.56
2022-12-03T18:24:34.690Z,101543.06
2022-12-03T18:27:01.034Z,101542.19
2022-12-03T18:29:27.179Z,101548.00
2022-12-03T18:31:53.425Z,101543.53
2022-12-03T18:34:19.574Z,101541.69
2022-12-03T18:36:45.827Z,101546.22
2022-12-03T18:39:24.460Z,101541.84
2022-12-03T18:41:50.567Z,101548.75
2022-12-03T18:44:16.692Z,101543.59
2022-12-03T18:46:53.495Z,101542.72
2022-12-03T18:49:20.213Z,101543.53
2022-12-03T18:51:46.354Z,101545.03
2022-12-03T18:54:13.670Z,101547.31
2022-12-03T18:56:41.372Z,101550.72
2022-12-03T18:59:08.001Z,101551.63
2022-12-03T19:01:34.520Z,101545.69
2022-12-03T19:04:00.670Z,101545.19
2022-12-03T19:06:29.044Z,101544.31
2022-12-03T19:08:55.213Z,101543.47
2022-12-03T19:11:22.042Z,101541.59
2022-12-03T19:13:48.541Z,101542.63
2022-12-03T19:16:17.104Z,101546.06
2022-12-03T19:18:43.939Z,101540.56
2022-12-03T19:21:12.997Z,101546.06
2022-12-03T19:23:39.599Z,101551.31
2022-12-03T19:26:08.630Z,101539.75
2022-12-03T19:28:35.158Z,101548.19
2022-12-03T19:31:06.623Z,101541.22
2022-12-03T19:33:34.094Z,101541.31
2022-12-03T19:36:01.217Z,101548.50
2022-12-03T19:38:29.144Z,101544.31
2022-12-03T19:41:07.157Z,101553.88
2022-12-03T19:43:35.265Z,101543.47
2022-12-03T19:46:11.887Z,101551.31
2022-12-03T19:48:39.809Z,101550.13
2022-12-03T19:51:33.076Z,101554.03
2022-12-03T19:53:54.077Z,101559.34
2022-12-03T19:56:20.298Z,101557.28
2022-12-03T19:58:47.156Z,101557.25
2022-12-03T20:01:19.226Z,101549.41
2022-12-03T20:03:48.003Z,101551.06
2022-12-03T20:06:15.537Z,101545.88
2022-12-03T20:08:42.330Z,101542.16
2022-12-03T20:11:17.965Z,101542.16
2022-12-03T20:13:44.680Z,101549.09
2022-12-03T20:16:13.522Z,101543.78
2022-12-03T20:18:41.026Z,101539.09
2022-12-03T20:21:08.740Z,101536.78
2022-12-03T20:23:34.893Z,101538.47
2022-12-03T20:26:01.021Z,101534.06
2022-12-03T20:28:28.163Z,101535.78
2022-12-03T20:31:11.020Z,101538.44
2022-12-03T20:33:37.869Z,101534.16
2022-12-03T20:36:04.727Z,101541.31
2022-12-03T20:38:32.054Z,101533.47
2022-12-03T20:41:03.234Z,101537.00
2022-12-03T20:43:29.488Z,101539.56
2022-12-03T20:46:01.035Z,101539.41
2022-12-03T20:48:28.789Z,101548.09
2022-12-03T20:50:54.970Z,101547.97
2022-12-03T20:53:25.349Z,101552.31
2022-12-03T20:55:56.399Z,101547.06
2022-12-03T20:58:22.582Z,101544.53
2022-12-03T21:00:48.777Z,101545.34
2022-12-03T21:03:14.978Z,101543.94
2022-12-03T21:05:42.608Z,101543.78
2022-12-03T21:08:08.800Z,101544.69
2022-12-03T21:10:44.761Z,101538.47
2022-12-03T21:13:15.617Z,101545.34
2022-12-03T21:15:43.102Z,101540.25
2022-12-03T21:18:11.645Z,101544.69
2022-12-03T21:20:46.271Z,101538.53
2022-12-03T21:23:13.396Z,101536.03
2022-12-03T21:25:40.488Z,101539.47
2022-12-03T21:28:09.061Z,101537.88
2022-12-03T21:30:38.524Z,101546.66
2022-12-03T21:33:04.933Z,101534.50
2022-12-03T21:35:31.252Z,101536.88
2022-12-03T21:37:57.549Z,101530.69
2022-12-03T21:40:23.976Z,101535.97
2022-12-03T21:42:50.090Z,101531.63
2022-12-03T21:45:16.428Z,101535.06
2022-12-03T21:47:46.114Z,101533.22
2022-12-03T21:50:12.342Z,101526.97
2022-12-03T21:52:38.482Z,101535.06
2022-12-03T21:55:05.446Z,101529.78
2022-12-03T21:57:31.605Z,101523.69
2022-12-03T21:59:58.049Z,101525.44
2022-12-03T22:02:24.369Z,101520.81
2022-12-03T22:04:51.146Z,101528.56
2022-12-03T22:07:17.677Z,101531.28
2022-12-03T22:09:43.852Z,101526.56
2022-12-03T22:12:10.037Z,101533.53
2022-12-03T22:14:36.258Z,101527.34
2022-12-03T22:17:02.372Z,101532.72
2022-12-03T22:19:28.572Z,101530.59
2022-12-03T22:21:54.695Z,101524.97
2022-12-03T22:24:20.964Z,101517.50
2022-12-03T22:26:47.620Z,101509.53
2022-12-03T22:29:13.756Z,101513.03
2022-12-03T22:31:39.885Z,101513.75
2022-12-03T22:34:06.185Z,101508.50
2022-12-03T22:36:32.445Z,101513.88
2022-12-03T22:38:58.582Z,101500.22
2022-12-03T22:41:24.706Z,101516.75
2022-12-03T22:43:50.855Z,101508.13
2022-12-03T22:46:17.535Z,101516.97
2022-12-03T22:48:45.579Z,101516.16
2022-12-03T22:51:16.859Z,101509.19
2022-12-03T22:53:43.280Z,101503.44
2022-12-03T22:56:09.489Z,101502.03
2022-12-03T22:58:37.887Z,101505.63
2022-12-03T23:01:04.647Z,101496.69
2022-12-03T23:03:30.916Z,101493.94
2022-12-03T23:05:57.157Z,101492.00
2022-12-03T23:08:23.346Z,101481.59
2022-12-03T23:10:52.296Z,101487.09
2022-12-03T23:13:19.234Z,101488.56
2022-12-03T23:15:47.037Z,101493.69
2022-12-03T23:18:13.693Z,101486.59
2022-12-03T23:20:45.719Z,101486.13
2022-12-03T23:23:12.762Z,101484.59
2022-12-03T23:25:38.928Z,101487.59
2022-12-03T23:28:05.773Z,101480.41
2022-12-03T23:30:38.700Z,101485.88
2022-12-03T23:33:06.338Z,101488.44
2022-12-03T23:35:32.844Z,101483.06
2022-12-03T23:37:59.060Z,101474.16
2022-12-03T23:40:25.184Z,101475.09
2022-12-03T23:42:51.296Z,101473.66
2022-12-03T23:45:17.520Z,101470.94
2022-12-03T23:47:43.647Z,101480.38
2022-12-03T23:50:11.174Z,101473.91
2022-12-03T23:52:37.398Z,101478.97
2022-12-03T23:55:04.225Z,101469.13
2022-12-03T23:57:30.370Z,101470.59
2022-12-03T23:59:56.870Z,101472.72
